sensor_id;sensor_type;location;lat;lon;timestamp;pressure;altitude;pressure_sealevel;temperature;humidity
64192;BME280;50497;50.720;-2.084;2022-09-28T00:01:46;100189.16;;;10.21;100.00
64192;BME280;50497;50.720;-2.084;2022-09-28T00:04:16;100184.66;;;10.22;100.00
64192;BME280;50497;50.720;-2.084;2022-09-28T00:06:43;100184.91;;;10.17;100.00
64192;BME280;50497;50.720;-2.084;2022-09-28T00:09:12;100178.25;;;10.08;100.00
64192;BME280;50497;50.720;-2.084;2022-09-28T00:11:40;100176.69;;;10.04;100.00
64192;BME280;50497;50.720;-2.084;2022-09-28T00:14:13;100177.66;;;10.03;100.00
64192;BME280;50497;50.720;-2.084;2022-09-28T00:16:42;100183.63;;;9.91;100.00
64192;BME280;50497;50.720;-2.084;2022-09-28T00:19:09;100167.00;;;9.86;100.00
64192;BME280;50497;50.720;-2.084;2022-09-28T00:21:37;100189.78;;;9.93;100.00
64192;BME280;50497;50.720;-2.084;2022-09-28T00:24:10;100190.03;;;9.88;100.00
64192;BME280;50497;50.720;-2.084;2022-09-28T00:26:48;100167.22;;;9.81;100.00
64192;BME280;50497;50.720;-2.084;2022-09-28T00:31:53;100184.84;;;9.85;100.00
64192;BME280;50497;50.720;-2.084;2022-09-28T00:34:29;100176.13;;;9.82;100.00
64192;BME280;50497;50.720;-2.084;2022-09-28T00:36:59;100175.09;;;9.84;100.00
64192;BME280;50497;50.720;-2.084;2022-09-28T00:39:34;100173.94;;;9.72;100.00
64192;BME280;50497;50.720;-2.084;2022-09-28T00:42:02;100175.59;;;9.75;100.00
64192;BME280;50497;50.720;-2.084;2022-09-28T00:44:42;100178.19;;;9.76;100.00
64192;BME280;50497;50.720;-2.084;2022-09-28T00:52:32;100172.63;;;9.64;100.00
64192;BME280;50497;50.720;-2.084;2022-09-28T00:55:00;100176.16;;;9.64;100.00
64192;BME280;50497;50.720;-2.084;2022-09-28T00:57:29;100164.22;;;9.54;100.00
64192;BME280;50497;50.720;-2.084;2022-09-28T00:59:55;100173.34;;;9.50;100.00
64192;BME280;50497;50.720;-2.084;2022-09-28T01:02:23;100168.78;;;9.52;100.00
64192;BME280;50497;50.720;-2.084;2022-09-28T01:04:53;100163.75;;;9.46;100.00
64192;BME280;50497;50.720;-2.084;2022-09-28T01:07:21;100173.44;;;9.48;100.00
64192;BME280;50497;50.720;-2.084;2022-09-28T01:09:47;100168.25;;;9.45;100.00
64192;BME280;50497;50.720;-2.084;2022-09-28T01:12:12;100172.00;;;9.41;100.00
64192;BME280;50497;50.720;-2.084;2022-09-28T01:14:48;100181.06;;;9.38;100.00
64192;BME280;50497;50.720;-2.084;2022-09-28T01:17:19;100180.09;;;9.39;100.00
64192;BME280;50497;50.720;-2.084;2022-09-28T01:20:23;100178.03;;;9.44;100.00
64192;BME280;50497;50.720;-2.084;2022-09-28T01:25:49;100180.97;;;9.22;100.00
64192;BME280;50497;50.720;-2.084;2022-09-28T01:28:19;100180.34;;;9.17;100.00
64192;BME280;50497;50.720;-2.084;2022-09-28T01:30:53;100184.75;;;9.18;100.00
64192;BME280;50497;50.720;-2.084;2022-09-28T01:33:38;100182.22;;;9.15;100.00
64192;BME280;50497;50.720;-2.084;2022-09-28T01:39:28;100182.91;;;9.19;100.00
64192;BME280;50497;50.720;-2.084;2022-09-28T01:41:50;100184.97;;;9.14;100.00
64192;BME280;50497;50.720;-2.084;2022-09-28T01:44:19;100184.03;;;9.15;100.00
64192;BME280;50497;50.720;-2.084;2022-09-28T01:46:50;100179.31;;;9.20;100.00
64192;BME280;50497;50.720;-2.084;2022-09-28T01:49:26;100170.78;;;9.13;100.00
64192;BME280;50497;50.720;-2.084;2022-09-28T01:52:09;100166.81;;;9.03;100.00
64192;BME280;50497;50.720;-2.084;2022-09-28T01:54:42;100176.19;;;9.12;100.00
64192;BME280;50497;50.720;-2.084;2022-09-28T01:57:38;100180.88;;;9.06;100.00
64192;BME280;50497;50.720;-2.084;2022-09-28T02:00:08;100181.97;;;9.02;100.00
64192;BME280;50497;50.720;-2.084;2022-09-28T02:02:43;100181.09;;;9.02;100.00
64192;BME280;50497;50.720;-2.084;2022-09-28T02:05:34;100164.34;;;8.81;100.00
64192;BME280;50497;50.720;-2.084;2022-09-28T02:08:22;100177.75;;;8.79;100.00
64192;BME280;50497;50.720;-2.084;2022-09-28T02:11:06;100179.00;;;8.72;100.00
64192;BME280;50497;50.720;-2.084;2022-09-28T02:16:13;100187.31;;;8.66;100.00
64192;BME280;50497;50.720;-2.084;2022-09-28T02:18:45;100167.56;;;8.51;100.00
64192;BME280;50497;50.720;-2.084;2022-09-28T02:24:16;100182.00;;;8.47;100.00
64192;BME280;50497;50.720;-2.084;2022-09-28T02:26:50;100162.81;;;8.39;100.00
64192;BME280;50497;50.720;-2.084;2022-09-28T02:29:19;100164.47;;;8.22;100.00
64192;BME280;50497;50.720;-2.084;2022-09-28T02:31:45;100178.38;;;8.29;100.00
64192;BME280;50497;50.720;-2.084;2022-09-28T02:34:13;100167.69;;;8.10;100.00
64192;BME280;50497;50.720;-2.084;2022-09-28T02:36:46;100177.41;;;8.11;100.00
64192;BME280;50497;50.720;-2.084;2022-09-28T02:39:17;100168.78;;;8.06;100.00
64192;BME280;50497;50.720;-2.084;2022-09-28T02:47:27;100178.78;;;8.01;100.00
64192;BME280;50497;50.720;-2.084;2022-09-28T02:55:57;100187.03;;;7.94;100.00
64192;BME280;50497;50.720;-2.084;2022-09-28T03:01:55;100190.72;;;7.92;100.00
64192;BME280;50497;50.720;-2.084;2022-09-28T03:07:18;100196.06;;;7.92;100.00
64192;BME280;50497;50.720;-2.084;2022-09-28T03:12:21;100193.84;;;7.81;100.00
64192;BME280;50497;50.720;-2.084;2022-09-28T03:15:30;100197.44;;;7.80;100.00
64192;BME280;50497;50.720;-2.084;2022-09-28T03:17:56;100202.94;;;7.77;100.00
64192;BME280;50497;50.720;-2.084;2022-09-28T03:20:23;100200.28;;;7.77;100.00
64192;BME280;50497;50.720;-2.084;2022-09-28T03:22:52;100187.28;;;7.69;100.00
64192;BME280;50497;50.720;-2.084;2022-09-28T03:25:20;100202.34;;;7.70;100.00
64192;BME280;50497;50.720;-2.084;2022-09-28T03:27:53;100188.28;;;7.67;100.00
64192;BME280;50497;50.720;-2.084;2022-09-28T03:30:22;100200.41;;;7.74;100.00
64192;BME280;50497;50.720;-2.084;2022-09-28T03:32:57;100197.50;;;7.78;100.00
64192;BME280;50497;50.720;-2.084;2022-09-28T03:35:32;100194.19;;;7.73;100.00
64192;BME280;50497;50.720;-2.084;2022-09-28T03:37:59;100191.41;;;7.76;100.00
64192;BME280;50497;50.720;-2.084;2022-09-28T03:40:24;100195.94;;;7.74;100.00
64192;BME280;50497;50.720;-2.084;2022-09-28T03:42:56;100183.72;;;7.70;100.00
64192;BME280;50497;50.720;-2.084;2022-09-28T03:45:23;100198.41;;;7.79;100.00
64192;BME280;50497;50.720;-2.084;2022-09-28T03:47:57;100193.19;;;7.76;100.00
64192;BME280;50497;50.720;-2.084;2022-09-28T03:50:29;100196.59;;;7.80;100.00
64192;BME280;50497;50.720;-2.084;2022-09-28T03:53:04;100199.06;;;7.84;100.00
64192;BME280;50497;50.720;-2.084;2022-09-28T03:55:33;100210.50;;;7.86;100.00
64192;BME280;50497;50.720;-2.084;2022-09-28T03:58:06;100203.94;;;7.93;100.00
64192;BME280;50497;50.720;-2.084;2022-09-28T04:00:33;100204.91;;;7.92;100.00
64192;BME280;50497;50.720;-2.084;2022-09-28T04:02:58;100194.25;;;7.92;100.00
64192;BME280;50497;50.720;-2.084;2022-09-28T04:05:30;100203.53;;;8.03;100.00
64192;BME280;50497;50.720;-2.084;2022-09-28T04:07:59;100200.69;;;8.07;100.00
64192;BME280;50497;50.720;-2.084;2022-09-28T04:10:27;100194.19;;;8.13;100.00
64192;BME280;50497;50.720;-2.084;2022-09-28T04:13:00;100198.88;;;8.08;100.00
64192;BME280;50497;50.720;-2.084;2022-09-28T04:15:25;100195.28;;;8.09;100.00
64192;BME280;50497;50.720;-2.084;2022-09-28T04:17:58;100205.22;;;8.05;100.00
64192;BME280;50497;50.720;-2.084;2022-09-28T04:20:28;100197.28;;;8.04;100.00
64192;BME280;50497;50.720;-2.084;2022-09-28T04:23:01;100191.38;;;7.97;100.00
64192;BME280;50497;50.720;-2.084;2022-09-28T04:25:33;100201.03;;;8.00;100.00
64192;BME280;50497;50.720;-2.084;2022-09-28T04:27:59;100204.78;;;7.95;100.00
64192;BME280;50497;50.720;-2.084;2022-09-28T04:30:45;100205.56;;;7.98;100.00
64192;BME280;50497;50.720;-2.084;2022-09-28T04:33:17;100213.56;;;7.98;100.00
64192;BME280;50497;50.720;-2.084;2022-09-28T04:35:43;100211.53;;;8.03;100.00
64192;BME280;50497;50.720;-2.084;2022-09-28T04:38:14;100206.94;;;8.06;100.00
64192;BME280;50497;50.720;-2.084;2022-09-28T04:40:40;100193.75;;;8.03;100.00
64192;BME280;50497;50.720;-2.084;2022-09-28T04:43:05;100213.63;;;8.15;100.00
64192;BME280;50497;50.720;-2.084;2022-09-28T04:45:38;100209.13;;;8.17;100.00
64192;BME280;50497;50.720;-2.084;2022-09-28T04:48:06;100216.81;;;8.23;100.00
64192;BME280;50497;50.720;-2.084;2022-09-28T04:50:36;100205.09;;;8.27;100.00
64192;BME280;50497;50.720;-2.084;2022-09-28T04:53:04;100198.84;;;8.28;100.00
64192;BME280;50497;50.720;-2.084;2022-09-28T04:55:35;100210.94;;;8.36;100.00
64192;BME280;50497;50.720;-2.084;2022-09-28T04:58:02;100200.47;;;8.31;100.00
64192;BME280;50497;50.720;-2.084;2022-09-28T05:00:29;100206.84;;;8.28;100.00
64192;BME280;50497;50.720;-2.084;2022-09-28T05:03:01;100207.41;;;8.35;100.00
64192;BME280;50497;50.720;-2.084;2022-09-28T05:05:29;100205.75;;;8.32;100.00
64192;BME280;50497;50.720;-2.084;2022-09-28T05:08:00;100212.81;;;8.33;100.00
64192;BME280;50497;50.720;-2.084;2022-09-28T05:10:25;100203.06;;;8.32;100.00
64192;BME280;50497;50.720;-2.084;2022-09-28T05:12:54;100183.91;;;8.24;100.00
64192;BME280;50497;50.720;-2.084;2022-09-28T05:15:24;100206.84;;;8.28;100.00
64192;BME280;50497;50.720;-2.084;2022-09-28T05:17:55;100207.53;;;8.32;100.00
64192;BME280;50497;50.720;-2.084;2022-09-28T05:20:23;100201.00;;;8.20;100.00
64192;BME280;50497;50.720;-2.084;2022-09-28T05:22:55;100190.81;;;8.09;100.00
64192;BME280;50497;50.720;-2.084;2022-09-28T05:25:21;100205.44;;;8.20;100.00
64192;BME280;50497;50.720;-2.084;2022-09-28T05:27:47;100201.78;;;8.22;100.00
64192;BME280;50497;50.720;-2.084;2022-09-28T05:30:17;100186.13;;;8.14;100.00
64192;BME280;50497;50.720;-2.084;2022-09-28T05:32:46;100199.03;;;8.24;100.00
64192;BME280;50497;50.720;-2.084;2022-09-28T05:35:20;100193.56;;;8.27;100.00
64192;BME280;50497;50.720;-2.084;2022-09-28T05:37:48;100192.47;;;8.12;100.00
64192;BME280;50497;50.720;-2.084;2022-09-28T05:40:23;100203.47;;;8.23;100.00
64192;BME280;50497;50.720;-2.084;2022-09-28T05:42:48;100211.66;;;8.20;100.00
64192;BME280;50497;50.720;-2.084;2022-09-28T05:45:23;100194.56;;;8.05;100.00
64192;BME280;50497;50.720;-2.084;2022-09-28T05:47:52;100207.66;;;8.10;100.00
64192;BME280;50497;50.720;-2.084;2022-09-28T05:50:18;100211.41;;;8.06;100.00
64192;BME280;50497;50.720;-2.084;2022-09-28T05:52:56;100206.28;;;8.01;100.00
64192;BME280;50497;50.720;-2.084;2022-09-28T05:55:21;100208.09;;;8.01;100.00
64192;BME280;50497;50.720;-2.084;2022-09-28T05:57:50;100199.56;;;7.92;100.00
64192;BME280;50497;50.720;-2.084;2022-09-28T06:00:16;100194.53;;;7.86;100.00
64192;BME280;50497;50.720;-2.084;2022-09-28T06:02:57;100193.66;;;7.86;100.00
64192;BME280;50497;50.720;-2.084;2022-09-28T06:05:27;100217.50;;;7.89;100.00
64192;BME280;50497;50.720;-2.084;2022-09-28T06:07:57;100219.56;;;7.82;100.00
64192;BME280;50497;50.720;-2.084;2022-09-28T06:10:29;100213.59;;;7.77;100.00
64192;BME280;50497;50.720;-2.084;2022-09-28T06:13:01;100217.22;;;7.74;100.00
64192;BME280;50497;50.720;-2.084;2022-09-28T06:15:29;100214.91;;;7.67;100.00
64192;BME280;50497;50.720;-2.084;2022-09-28T06:18:02;100217.78;;;7.62;100.00
64192;BME280;50497;50.720;-2.084;2022-09-28T06:20:38;100210.13;;;7.54;100.00
64192;BME280;50497;50.720;-2.084;2022-09-28T06:23:11;100217.56;;;7.46;100.00
64192;BME280;50497;50.720;-2.084;2022-09-28T06:25:40;100216.91;;;7.41;100.00
64192;BME280;50497;50.720;-2.084;2022-09-28T06:28:13;100223.16;;;7.40;100.00
64192;BME280;50497;50.720;-2.084;2022-09-28T06:30:50;100221.16;;;7.45;100.00
64192;BME280;50497;50.720;-2.084;2022-09-28T06:33:22;100224.56;;;7.49;100.00
64192;BME280;50497;50.720;-2.084;2022-09-28T06:35:58;100214.00;;;7.47;100.00
64192;BME280;50497;50.720;-2.084;2022-09-28T06:38:28;100227.84;;;7.55;100.00
64192;BME280;50497;50.720;-2.084;2022-09-28T06:40:56;100231.34;;;7.56;100.00
64192;BME280;50497;50.720;-2.084;2022-09-28T06:43:25;100235.81;;;7.55;100.00
64192;BME280;50497;50.720;-2.084;2022-09-28T06:45:58;100236.75;;;7.54;100.00
64192;BME280;50497;50.720;-2.084;2022-09-28T06:48:31;100229.63;;;7.55;100.00
64192;BME280;50497;50.720;-2.084;2022-09-28T06:51:00;100239.41;;;7.54;100.00
64192;BME280;50497;50.720;-2.084;2022-09-28T06:53:33;100236.88;;;7.51;100.00
64192;BME280;50497;50.720;-2.084;2022-09-28T06:56:02;100241.28;;;7.52;100.00
64192;BME280;50497;50.720;-2.084;2022-09-28T06:58:34;100238.63;;;7.52;100.00
64192;BME280;50497;50.720;-2.084;2022-09-28T07:01:02;100239.41;;;7.54;100.00
64192;BME280;50497;50.720;-2.084;2022-09-28T07:03:35;100246.91;;;7.65;100.00
64192;BME280;50497;50.720;-2.084;2022-09-28T07:06:11;100243.88;;;7.74;100.00
64192;BME280;50497;50.720;-2.084;2022-09-28T07:08:37;100236.41;;;7.83;100.00
64192;BME280;50497;50.720;-2.084;2022-09-28T07:11:14;100241.75;;;8.02;100.00
64192;BME280;50497;50.720;-2.084;2022-09-28T07:13:40;100224.47;;;8.12;100.00
64192;BME280;50497;50.720;-2.084;2022-09-28T07:16:06;100243.78;;;8.36;100.00
64192;BME280;50497;50.720;-2.084;2022-09-28T07:18:32;100249.81;;;8.60;100.00
64192;BME280;50497;50.720;-2.084;2022-09-28T07:21:01;100247.97;;;8.80;100.00
64192;BME280;50497;50.720;-2.084;2022-09-28T07:23:32;100238.81;;;8.85;100.00
64192;BME280;50497;50.720;-2.084;2022-09-28T07:26:05;100241.91;;;8.95;100.00
64192;BME280;50497;50.720;-2.084;2022-09-28T07:28:35;100240.97;;;8.96;100.00
64192;BME280;50497;50.720;-2.084;2022-09-28T07:31:06;100241.88;;;9.14;100.00
64192;BME280;50497;50.720;-2.084;2022-09-28T07:33:35;100237.00;;;9.22;100.00
64192;BME280;50497;50.720;-2.084;2022-09-28T07:36:05;100239.78;;;9.38;100.00
64192;BME280;50497;50.720;-2.084;2022-09-28T07:38:36;100238.06;;;9.37;100.00
64192;BME280;50497;50.720;-2.084;2022-09-28T07:41:07;100227.13;;;9.24;100.00
64192;BME280;50497;50.720;-2.084;2022-09-28T07:43:41;100223.88;;;9.18;100.00
64192;BME280;50497;50.720;-2.084;2022-09-28T07:46:20;100246.06;;;9.20;100.00
64192;BME280;50497;50.720;-2.084;2022-09-28T07:48:47;100236.16;;;9.22;100.00
64192;BME280;50497;50.720;-2.084;2022-09-28T07:51:19;100237.22;;;9.18;100.00
64192;BME280;50497;50.720;-2.084;2022-09-28T07:53:49;100236.16;;;9.22;100.00
64192;BME280;50497;50.720;-2.084;2022-09-28T07:56:22;100240.94;;;9.15;100.00
64192;BME280;50497;50.720;-2.084;2022-09-28T07:58:51;100239.00;;;9.36;100.00
64192;BME280;50497;50.720;-2.084;2022-09-28T08:01:20;100245.28;;;9.53;100.00
64192;BME280;50497;50.720;-2.084;2022-09-28T08:03:51;100237.59;;;9.82;100.00
64192;BME280;50497;50.720;-2.084;2022-09-28T08:06:30;100227.06;;;10.12;100.00
64192;BME280;50497;50.720;-2.084;2022-09-28T08:08:59;100244.94;;;10.61;100.00
64192;BME280;50497;50.720;-2.084;2022-09-28T08:11:34;100234.09;;;10.80;100.00
64192;BME280;50497;50.720;-2.084;2022-09-28T08:14:07;100242.38;;;10.91;100.00
64192;BME280;50497;50.720;-2.084;2022-09-28T08:16:43;100235.44;;;11.03;100.00
64192;BME280;50497;50.720;-2.084;2022-09-28T08:19:15;100228.28;;;11.03;100.00
64192;BME280;50497;50.720;-2.084;2022-09-28T08:21:47;100227.16;;;11.07;100.00
64192;BME280;50497;50.720;-2.084;2022-09-28T08:24:19;100218.50;;;11.18;100.00
64192;BME280;50497;50.720;-2.084;2022-09-28T08:26:49;100221.41;;;11.30;100.00
64192;BME280;50497;50.720;-2.084;2022-09-28T08:29:21;100232.09;;;11.45;100.00
64192;BME280;50497;50.720;-2.084;2022-09-28T08:31:53;100223.94;;;11.47;100.00
64192;BME280;50497;50.720;-2.084;2022-09-28T08:34:28;100226.53;;;11.79;100.00
64192;BME280;50497;50.720;-2.084;2022-09-28T08:36:56;100209.78;;;11.90;100.00
64192;BME280;50497;50.720;-2.084;2022-09-28T08:39:28;100216.72;;;12.23;100.00
64192;BME280;50497;50.720;-2.084;2022-09-28T08:44:46;100202.19;;;14.40;100.00
64192;BME280;50497;50.720;-2.084;2022-09-28T08:47:25;100180.94;;;15.33;100.00
64192;BME280;50497;50.720;-2.084;2022-09-28T08:50:18;100186.16;;;15.95;100.00
64192;BME280;50497;50.720;-2.084;2022-09-28T08:52:58;100181.50;;;16.42;100.00
64192;BME280;50497;50.720;-2.084;2022-09-28T08:55:31;100185.47;;;16.93;100.00
64192;BME280;50497;50.720;-2.084;2022-09-28T08:58:21;100190.78;;;17.27;100.00
64192;BME280;50497;50.720;-2.084;2022-09-28T09:00:52;100180.03;;;17.58;100.00
64192;BME280;50497;50.720;-2.084;2022-09-28T09:03:25;100184.94;;;17.85;100.00
64192;BME280;50497;50.720;-2.084;2022-09-28T09:06:27;100184.63;;;18.30;100.00
64192;BME280;50497;50.720;-2.084;2022-09-28T09:11:55;100185.88;;;17.95;100.00
64192;BME280;50497;50.720;-2.084;2022-09-28T09:20:47;100172.69;;;19.42;100.00
64192;BME280;50497;50.720;-2.084;2022-09-28T09:23:56;100166.38;;;18.73;100.00
64192;BME280;50497;50.720;-2.084;2022-09-28T09:26:37;100164.31;;;18.55;100.00
64192;BME280;50497;50.720;-2.084;2022-09-28T09:40:21;100163.81;;;20.26;100.00
64192;BME280;50497;50.720;-2.084;2022-09-28T09:43:31;100158.56;;;19.28;100.00
64192;BME280;50497;50.720;-2.084;2022-09-28T09:48:57;100158.91;;;19.92;100.00
64192;BME280;50497;50.720;-2.084;2022-09-28T09:54:34;100142.00;;;21.45;100.00
64192;BME280;50497;50.720;-2.084;2022-09-28T09:57:29;100143.31;;;21.41;100.00
64192;BME280;50497;50.720;-2.084;2022-09-28T09:59:54;100149.56;;;20.42;100.00
64192;BME280;50497;50.720;-2.084;2022-09-28T10:02:31;100149.31;;;19.21;100.00
64192;BME280;50497;50.720;-2.084;2022-09-28T10:07:46;100141.31;;;19.29;100.00
64192;BME280;50497;50.720;-2.084;2022-09-28T10:10:24;100149.53;;;20.24;100.00
64192;BME280;50497;50.720;-2.084;2022-09-28T10:12:56;100150.84;;;20.93;100.00
64192;BME280;50497;50.720;-2.084;2022-09-28T10:15:27;100130.66;;;21.32;96.72
64192;BME280;50497;50.720;-2.084;2022-09-28T10:17:54;100138.25;;;21.64;96.67
64192;BME280;50497;50.720;-2.084;2022-09-28T10:20:21;100140.53;;;22.38;95.55
64192;BME280;50497;50.720;-2.084;2022-09-28T10:22:49;100133.50;;;22.69;94.50
64192;BME280;50497;50.720;-2.084;2022-09-28T10:25:16;100128.81;;;23.46;87.71
64192;BME280;50497;50.720;-2.084;2022-09-28T10:27:45;100129.53;;;22.13;90.76
64192;BME280;50497;50.720;-2.084;2022-09-28T10:30:20;100144.38;;;20.48;96.96
64192;BME280;50497;50.720;-2.084;2022-09-28T10:32:51;100135.00;;;19.48;100.00
64192;BME280;50497;50.720;-2.084;2022-09-28T10:37:54;100145.78;;;18.60;100.00
64192;BME280;50497;50.720;-2.084;2022-09-28T10:43:01;100134.56;;;17.72;100.00
64192;BME280;50497;50.720;-2.084;2022-09-28T10:45:34;100144.88;;;17.15;100.00
64192;BME280;50497;50.720;-2.084;2022-09-28T10:48:05;100152.56;;;16.99;100.00
64192;BME280;50497;50.720;-2.084;2022-09-28T10:50:38;100149.47;;;17.04;100.00
64192;BME280;50497;50.720;-2.084;2022-09-28T10:53:19;100132.25;;;16.61;100.00
64192;BME280;50497;50.720;-2.084;2022-09-28T10:56:05;100158.66;;;16.35;100.00
64192;BME280;50497;50.720;-2.084;2022-09-28T10:58:40;100144.81;;;16.17;100.00
64192;BME280;50497;50.720;-2.084;2022-09-28T11:01:15;100148.16;;;16.09;100.00
64192;BME280;50497;50.720;-2.084;2022-09-28T11:04:03;100145.59;;;15.49;100.00
64192;BME280;50497;50.720;-2.084;2022-09-28T11:06:42;100158.19;;;15.38;100.00
64192;BME280;50497;50.720;-2.084;2022-09-28T11:09:39;100145.84;;;15.11;100.00
64192;BME280;50497;50.720;-2.084;2022-09-28T11:12:25;100146.63;;;15.24;100.00
64192;BME280;50497;50.720;-2.084;2022-09-28T11:15:03;100130.78;;;15.66;100.00
64192;BME280;50497;50.720;-2.084;2022-09-28T11:17:36;100138.56;;;16.16;100.00
64192;BME280;50497;50.720;-2.084;2022-09-28T11:22:55;100127.09;;;16.58;100.00
64192;BME280;50497;50.720;-2.084;2022-09-28T11:25:28;100128.84;;;16.80;100.00
64192;BME280;50497;50.720;-2.084;2022-09-28T11:27:56;100130.38;;;16.73;100.00
64192;BME280;50497;50.720;-2.084;2022-09-28T11:30:43;100127.28;;;16.89;100.00
64192;BME280;50497;50.720;-2.084;2022-09-28T11:33:17;100130.59;;;16.92;100.00
64192;BME280;50497;50.720;-2.084;2022-09-28T11:35:57;100127.88;;;16.81;100.00
64192;BME280;50497;50.720;-2.084;2022-09-28T11:46:48;100115.91;;;19.20;100.00
64192;BME280;50497;50.720;-2.084;2022-09-28T11:49:48;100107.94;;;18.99;100.00
64192;BME280;50497;50.720;-2.084;2022-09-28T11:52:44;100106.44;;;21.02;100.00
64192;BME280;50497;50.720;-2.084;2022-09-28T11:57:39;100096.50;;;19.06;100.00
64192;BME280;50497;50.720;-2.084;2022-09-28T12:00:13;100101.34;;;18.92;100.00
64192;BME280;50497;50.720;-2.084;2022-09-28T12:02:48;100097.94;;;18.90;100.00
64192;BME280;50497;50.720;-2.084;2022-09-28T12:05:55;100094.06;;;19.22;100.00
64192;BME280;50497;50.720;-2.084;2022-09-28T12:08:28;100094.69;;;20.66;100.00
64192;BME280;50497;50.720;-2.084;2022-09-28T12:13:32;100078.66;;;20.17;100.00
64192;BME280;50497;50.720;-2.084;2022-09-28T12:16:03;100091.19;;;19.90;100.00
64192;BME280;50497;50.720;-2.084;2022-09-28T12:18:37;100080.88;;;19.56;100.00
64192;BME280;50497;50.720;-2.084;2022-09-28T12:21:42;100078.59;;;19.42;100.00
64192;BME280;50497;50.720;-2.084;2022-09-28T12:24:37;100085.34;;;19.38;100.00
64192;BME280;50497;50.720;-2.084;2022-09-28T12:27:22;100078.75;;;19.41;100.00
64192;BME280;50497;50.720;-2.084;2022-09-28T12:34:49;100067.78;;;18.64;100.00
64192;BME280;50497;50.720;-2.084;2022-09-28T12:37:26;100074.69;;;18.08;100.00
64192;BME280;50497;50.720;-2.084;2022-09-28T12:45:40;100077.94;;;17.50;100.00
64192;BME280;50497;50.720;-2.084;2022-09-28T12:51:19;100076.63;;;17.02;100.00
64192;BME280;50497;50.720;-2.084;2022-09-28T13:05:17;100061.53;;;18.73;100.00
64192;BME280;50497;50.720;-2.084;2022-09-28T13:08:13;100058.75;;;18.15;100.00
64192;BME280;50497;50.720;-2.084;2022-09-28T13:11:00;100058.25;;;17.69;100.00
64192;BME280;50497;50.720;-2.084;2022-09-28T13:16:47;100055.34;;;17.09;100.00
64192;BME280;50497;50.720;-2.084;2022-09-28T13:19:40;100050.66;;;18.44;100.00
64192;BME280;50497;50.720;-2.084;2022-09-28T13:22:29;100037.97;;;18.35;100.00
64192;BME280;50497;50.720;-2.084;2022-09-28T13:25:03;100048.81;;;18.35;100.00
64192;BME280;50497;50.720;-2.084;2022-09-28T13:27:46;100046.06;;;18.25;100.00
64192;BME280;50497;50.720;-2.084;2022-09-28T13:30:13;100040.69;;;18.35;100.00
64192;BME280;50497;50.720;-2.084;2022-09-28T13:32:44;100032.66;;;18.23;100.00
64192;BME280;50497;50.720;-2.084;2022-09-28T13:35:15;100042.25;;;17.87;100.00
64192;BME280;50497;50.720;-2.084;2022-09-28T13:37:43;100061.28;;;17.54;100.00
64192;BME280;50497;50.720;-2.084;2022-09-28T13:40:13;100050.84;;;18.81;100.00
64192;BME280;50497;50.720;-2.084;2022-09-28T13:43:21;100051.34;;;20.64;100.00
64192;BME280;50497;50.720;-2.084;2022-09-28T13:45:55;100047.88;;;19.61;95.81
64192;BME280;50497;50.720;-2.084;2022-09-28T13:51:57;100069.56;;;17.11;100.00
64192;BME280;50497;50.720;-2.084;2022-09-28T13:55:02;100087.88;;;16.31;100.00
64192;BME280;50497;50.720;-2.084;2022-09-28T13:57:41;100096.22;;;15.71;100.00
64192;BME280;50497;50.720;-2.084;2022-09-28T14:02:56;100109.63;;;13.80;100.00
64192;BME280;50497;50.720;-2.084;2022-09-28T14:08:33;100106.81;;;13.43;100.00
64192;BME280;50497;50.720;-2.084;2022-09-28T14:16:33;100106.84;;;13.81;100.00
64192;BME280;50497;50.720;-2.084;2022-09-28T14:19:07;100105.31;;;14.03;100.00
64192;BME280;50497;50.720;-2.084;2022-09-28T14:22:12;100111.72;;;14.13;100.00
64192;BME280;50497;50.720;-2.084;2022-09-28T14:24:53;100111.56;;;14.28;100.00
64192;BME280;50497;50.720;-2.084;2022-09-28T14:28:11;100105.91;;;14.19;100.00
64192;BME280;50497;50.720;-2.084;2022-09-28T14:30:48;100088.44;;;14.25;100.00
64192;BME280;50497;50.720;-2.084;2022-09-28T14:36:05;100083.63;;;14.54;100.00
64192;BME280;50497;50.720;-2.084;2022-09-28T14:38:55;100091.91;;;15.00;100.00
64192;BME280;50497;50.720;-2.084;2022-09-28T14:41:41;100073.88;;;15.24;100.00
64192;BME280;50497;50.720;-2.084;2022-09-28T14:44:15;100096.75;;;15.77;100.00
64192;BME280;50497;50.720;-2.084;2022-09-28T14:46:47;100066.22;;;15.87;100.00
64192;BME280;50497;50.720;-2.084;2022-09-28T14:54:27;100060.94;;;16.96;100.00
64192;BME280;50497;50.720;-2.084;2022-09-28T14:57:16;100066.84;;;16.90;100.00
64192;BME280;50497;50.720;-2.084;2022-09-28T14:59:43;100048.75;;;16.69;100.00
64192;BME280;50497;50.720;-2.084;2022-09-28T15:04:40;100056.97;;;16.35;100.00
64192;BME280;50497;50.720;-2.084;2022-09-28T15:07:24;100039.66;;;16.26;100.00
64192;BME280;50497;50.720;-2.084;2022-09-28T15:10:03;100056.50;;;16.19;100.00
64192;BME280;50497;50.720;-2.084;2022-09-28T15:12:46;100053.22;;;16.04;100.00
64192;BME280;50497;50.720;-2.084;2022-09-28T15:15:28;100060.84;;;15.76;100.00
64192;BME280;50497;50.720;-2.084;2022-09-28T15:18:06;100047.19;;;15.55;100.00
64192;BME280;50497;50.720;-2.084;2022-09-28T15:20:47;100067.59;;;15.24;100.00
64192;BME280;50497;50.720;-2.084;2022-09-28T15:25:54;100062.75;;;14.93;100.00
64192;BME280;50497;50.720;-2.084;2022-09-28T15:28:25;100061.47;;;14.75;100.00
64192;BME280;50497;50.720;-2.084;2022-09-28T15:31:04;100066.25;;;14.58;100.00
64192;BME280;50497;50.720;-2.084;2022-09-28T15:33:41;100072.84;;;14.54;100.00
64192;BME280;50497;50.720;-2.084;2022-09-28T15:36:40;100069.47;;;14.39;100.00
64192;BME280;50497;50.720;-2.084;2022-09-28T15:41:42;100079.25;;;14.40;100.00
64192;BME280;50497;50.720;-2.084;2022-09-28T15:44:30;100084.81;;;14.50;100.00